Time;durP1;ratioP1;P1;durP2;ratioP2;P2;SDS_P1;SDS_P2;PMS_P1;PMS_P2;Temp;Humidity;BMP_temperature;BMP_pressure;BME280_temperature;BME280_humidity;BME280_pressure;Samples;Min_cycle;Max_cycle;Signal;HPM_P1;HPM_P2
2024/02/01 00:02:24;;;;;;;8.30;4.03;;;;;;;-0.62;95.73;102066.88;4966429;28;20037;-62
2024/02/01 00:04:50;;;;;;;10.52;4.72;;;;;;;-0.60;96.60;102065.13;4964677;28;20039;-62
2024/02/01 00:07:15;;;;;;;8.48;3.95;;;;;;;-0.59;96.22;102059.13;4967620;28;20157;-62
2024/02/01 00:09:40;;;;;;;7.35;4.03;;;;;;;-0.57;96.10;102061.66;4963166;28;20078;-61
2024/02/01 00:12:07;;;;;;;9.20;4.13;;;;;;;-0.58;96.03;102059.97;4993464;28;20214;-62
2024/02/01 00:14:32;;;;;;;7.35;3.50;;;;;;;-0.63;96.18;102057.50;4986485;28;20034;-62
2024/02/01 00:16:57;;;;;;;6.30;3.35;;;;;;;-0.70;96.32;102048.28;4966622;28;20081;-62
2024/02/01 00:19:23;;;;;;;8.38;4.10;;;;;;;-0.70;97.19;102058.50;4965127;28;20556;-62
2024/02/01 00:21:49;;;;;;;9.07;3.53;;;;;;;-0.71;97.17;102052.56;4968739;28;20094;-62
2024/02/01 00:24:15;;;;;;;7.03;3.10;;;;;;;-0.65;97.16;102043.91;4963900;28;20114;-62
2024/02/01 00:26:41;;;;;;;7.70;2.42;;;;;;;-0.31;96.28;102046.50;4962685;28;20045;-62
2024/02/01 00:29:06;;;;;;;5.30;2.45;;;;;;;0.35;91.74;102043.13;4967303;28;20058;-62
2024/02/01 00:31:31;;;;;;;10.25;2.92;;;;;;;0.23;89.81;102039.16;4986072;28;20057;-62
2024/02/01 00:33:57;;;;;;;7.72;2.83;;;;;;;-0.12;90.53;102034.94;4963228;28;20068;-62
2024/02/01 00:36:22;;;;;;;7.88;2.75;;;;;;;-0.36;91.72;102027.84;4972396;28;20169;-62
2024/02/01 00:38:48;;;;;;;7.07;2.53;;;;;;;-0.50;92.85;102023.06;4963207;28;20509;-62
2024/02/01 00:41:13;;;;;;;8.98;2.05;;;;;;;-0.56;93.51;102024.94;4967749;28;20065;-62
2024/02/01 00:43:39;;;;;;;6.10;1.95;;;;;;;-0.61;93.80;102024.19;4945913;28;20065;-62
2024/02/01 00:46:04;;;;;;;8.10;2.38;;;;;;;-0.63;94.23;102023.38;4964400;28;20549;-62
2024/02/01 00:48:30;;;;;;;5.63;2.22;;;;;;;-0.65;94.85;102020.84;4975810;28;20039;-61
2024/02/01 00:50:56;;;;;;;9.48;2.60;;;;;;;-0.67;94.78;102022.59;4963038;28;20104;-62
2024/02/01 00:53:23;;;;;;;5.43;2.17;;;;;;;-0.75;94.59;102032.19;4962455;28;20446;-62
2024/02/01 00:55:49;;;;;;;5.65;2.03;;;;;;;-0.43;94.40;102031.41;4963631;28;20023;-62
2024/02/01 00:58:15;;;;;;;5.80;2.42;;;;;;;-0.04;91.58;102029.63;4966144;28;20036;-62
2024/02/01 01:00:40;;;;;;;7.63;2.13;;;;;;;-0.11;90.61;102035.78;4974580;28;20106;-62
2024/02/01 01:03:05;;;;;;;6.78;2.60;;;;;;;-0.22;90.98;102030.06;4977120;28;20038;-62
2024/02/01 01:05:31;;;;;;;8.15;2.35;;;;;;;-0.31;91.33;102025.16;4965655;28;20133;-62
2024/02/01 01:07:57;;;;;;;8.05;3.00;;;;;;;-0.40;91.66;102021.94;4960784;28;20044;-62
2024/02/01 01:10:22;;;;;;;12.55;3.28;;;;;;;-0.46;91.81;102014.41;4961958;28;20045;-62
2024/02/01 01:12:48;;;;;;;12.90;4.40;;;;;;;-0.48;92.53;102023.88;4980723;28;20697;-61
2024/02/01 01:15:13;;;;;;;19.88;6.70;;;;;;;-0.47;92.97;102022.13;4965624;28;20038;-62
2024/02/01 01:17:39;;;;;;;14.02;4.95;;;;;;;-0.50;93.00;102014.53;4967881;28;20500;-62
2024/02/01 01:20:05;;;;;;;14.05;5.68;;;;;;;-0.47;93.21;102019.56;4964385;28;20031;-63
2024/02/01 01:22:31;;;;;;;18.52;6.97;;;;;;;-0.43;92.78;102013.50;4967437;28;20041;-61
2024/02/01 01:24:56;;;;;;;12.05;4.90;;;;;;;0.14;90.81;102015.47;4965938;28;20070;-62
2024/02/01 01:27:22;;;;;;;6.28;2.72;;;;;;;0.97;85.33;102010.53;4963557;28;20061;-62
2024/02/01 01:29:48;;;;;;;11.75;4.05;;;;;;;1.28;83.11;102009.63;4962446;28;20037;-62
2024/02/01 01:32:15;;;;;;;14.00;5.88;;;;;;;0.93;83.25;101997.84;4966461;28;20051;-62
2024/02/01 01:34:41;;;;;;;12.15;3.80;;;;;;;0.58;84.62;102004.00;4973841;28;20080;-62
2024/02/01 01:37:06;;;;;;;16.42;6.55;;;;;;;0.41;86.34;101999.34;4962770;28;20558;-62
2024/02/01 01:39:32;;;;;;;13.65;5.53;;;;;;;0.33;86.37;101988.47;4966249;28;20495;-62
2024/02/01 01:41:57;;;;;;;12.85;5.65;;;;;;;0.18;86.86;101997.41;4962111;28;20454;-62
2024/02/01 01:44:22;;;;;;;14.07;6.20;;;;;;;0.10;87.50;101996.78;4963119;28;20057;-62
2024/02/01 01:46:48;;;;;;;18.67;5.97;;;;;;;0.06;87.79;101987.47;4961416;28;20031;-61
2024/02/01 01:49:17;;;;;;;12.35;5.60;;;;;;;0.14;87.80;101977.03;4966249;28;20500;-62
2024/02/01 01:51:45;;;;;;;13.07;5.93;;;;;;;0.28;87.49;101980.06;4963577;28;20509;-62
2024/02/01 01:54:12;;;;;;;6.95;2.63;;;;;;;0.74;84.93;101974.47;4967575;28;20031;-62
2024/02/01 01:56:39;;;;;;;11.90;3.20;;;;;;;1.39;81.09;101969.03;4962131;28;20077;-62
2024/02/01 01:59:06;;;;;;;5.78;1.65;;;;;;;1.76;78.48;101973.78;4975518;28;20506;-62
2024/02/01 02:01:35;;;;;;;5.63;1.35;;;;;;;2.12;76.23;101968.25;4968873;28;20046;-62
2024/02/01 02:04:01;;;;;;;8.85;2.60;;;;;;;2.13;76.72;101967.38;4969786;28;20114;-62
2024/02/01 02:06:28;;;;;;;12.23;3.55;;;;;;;1.83;78.23;101969.28;4965742;28;20043;-62
2024/02/01 02:08:53;;;;;;;11.70;3.63;;;;;;;1.56;79.62;101976.16;4963038;28;21854;-62
2024/02/01 02:11:19;;;;;;;8.23;3.53;;;;;;;1.61;79.02;101967.41;4981583;28;20037;-62
2024/02/01 02:13:47;;;;;;;5.63;2.22;;;;;;;1.71;78.43;101965.38;4975286;28;20042;-62
2024/02/01 02:16:13;;;;;;;13.85;4.13;;;;;;;1.46;79.73;101967.91;4960677;28;21658;-63
2024/02/01 02:18:38;;;;;;;4.95;1.23;;;;;;;1.34;79.05;101955.50;4962048;28;20046;-62
2024/02/01 02:21:05;;;;;;;5.03;1.30;;;;;;;1.69;77.94;101956.88;4970927;28;20482;-62
2024/02/01 02:23:31;;;;;;;7.63;2.08;;;;;;;1.80;78.04;101954.81;4962378;28;20031;-62
2024/02/01 02:25:56;;;;;;;4.93;1.30;;;;;;;2.01;75.49;101942.91;4965767;28;20076;-62
2024/02/01 02:28:22;;;;;;;4.00;1.33;;;;;;;2.26;73.65;101936.03;4967575;28;20037;-62
2024/02/01 02:30:47;;;;;;;4.25;1.55;;;;;;;2.35;73.03;101937.44;4959791;28;20113;-62
2024/02/01 02:33:13;;;;;;;12.82;3.28;;;;;;;2.11;74.41;101934.00;4961695;28;20031;-62
2024/02/01 02:35:39;;;;;;;8.65;4.30;;;;;;;1.89;76.54;101931.34;4965646;28;20061;-62
2024/02/01 02:38:04;;;;;;;12.45;4.60;;;;;;;1.65;77.87;101927.88;4967327;28;20054;-62
2024/02/01 02:40:30;;;;;;;13.65;5.97;;;;;;;1.35;79.12;101925.53;4948090;28;20040;-62
2024/02/01 02:42:55;;;;;;;11.00;5.28;;;;;;;1.03;81.06;101929.94;4960701;28;20030;-62
2024/02/01 02:45:21;;;;;;;16.27;6.40;;;;;;;0.87;81.92;101928.75;4959787;28;20543;-62
2024/02/01 02:47:47;;;;;;;12.65;5.68;;;;;;;0.73;82.69;101926.59;4959495;28;20141;-62
2024/02/01 02:50:12;;;;;;;14.45;4.22;;;;;;;1.04;81.00;101930.78;4960849;28;20034;-62
2024/02/01 02:52:39;;;;;;;10.73;4.03;;;;;;;1.32;79.92;101922.16;4960719;28;20030;-62
2024/02/01 02:55:08;;;;;;;14.20;4.18;;;;;;;1.39;78.95;101915.09;4963733;28;20038;-62
2024/02/01 02:57:35;;;;;;;9.80;3.63;;;;;;;1.15;79.98;101913.31;4963648;28;20152;-62
2024/02/01 03:00:02;;;;;;;8.30;3.00;;;;;;;1.41;78.15;101917.63;4965286;28;20042;-62
2024/02/01 03:02:28;;;;;;;3.33;1.30;;;;;;;1.82;75.98;101911.91;4989960;28;20037;-62
2024/02/01 03:04:54;;;;;;;7.80;1.15;;;;;;;2.09;74.71;101902.34;4974091;28;20035;-62
2024/02/01 03:07:19;;;;;;;4.93;0.95;;;;;;;2.19;73.68;101908.84;4971074;28;20034;-62
2024/02/01 03:09:45;;;;;;;2.78;1.00;;;;;;;2.21;73.28;101904.50;4964390;28;20084;-62
2024/02/01 03:12:10;;;;;;;5.55;0.98;;;;;;;2.24;73.75;101906.13;4990103;28;20054;-62
2024/02/01 03:14:40;;;;;;;7.15;0.90;;;;;;;2.16;73.77;101900.41;4969994;28;20715;-62
2024/02/01 03:17:08;;;;;;;3.15;1.05;;;;;;;2.17;73.40;101905.50;4962969;28;20038;-63
2024/02/01 03:19:40;;;;;;;3.42;1.15;;;;;;;2.21;73.29;101898.50;4962183;28;20169;-62
2024/02/01 03:22:06;;;;;;;3.03;1.00;;;;;;;2.27;72.52;101904.28;4971176;28;20042;-62
2024/02/01 03:24:32;;;;;;;3.05;0.70;;;;;;;2.27;72.31;101891.41;4969381;28;20557;-62
2024/02/01 03:27:01;;;;;;;2.85;1.17;;;;;;;2.23;72.65;101891.56;4962990;28;20211;-62
2024/02/01 03:29:28;;;;;;;4.20;1.05;;;;;;;2.22;72.05;101889.91;4963535;28;20026;-62
2024/02/01 03:31:54;;;;;;;4.13;1.35;;;;;;;2.30;71.53;101890.47;4964204;28;20062;-62
2024/02/01 03:34:27;;;;;;;4.40;0.77;;;;;;;2.34;71.49;101889.44;4970597;28;20034;-62
2024/02/01 03:36:52;;;;;;;3.22;0.82;;;;;;;2.30;71.72;101887.88;4969099;28;20414;-62
2024/02/01 03:39:22;;;;;;;3.50;1.30;;;;;;;2.28;71.61;101887.94;4968930;28;20034;-62
2024/02/01 03:41:55;;;;;;;7.40;1.25;;;;;;;2.32;71.29;101886.94;4963677;28;20630;-62
2024/02/01 03:44:21;;;;;;;3.90;1.23;;;;;;;2.29;71.17;101887.06;4963075;28;20038;-62
2024/02/01 03:46:47;;;;;;;4.10;1.50;;;;;;;2.29;71.73;101897.34;4964644;28;20038;-62
2024/02/01 03:49:14;;;;;;;4.15;0.95;;;;;;;2.23;71.64;101889.84;4964851;28;20113;-62
2024/02/01 03:51:39;;;;;;;4.65;1.02;;;;;;;2.19;72.10;101890.00;4963392;28;20466;-62
2024/02/01 03:54:05;;;;;;;4.47;0.93;;;;;;;2.25;71.40;101880.34;4969657;28;20031;-62
2024/02/01 03:56:40;;;;;;;4.57;1.05;;;;;;;2.19;71.53;101884.88;4963373;28;20280;-62
2024/02/01 03:59:11;;;;;;;4.05;0.93;;;;;;;2.15;71.39;101893.59;4971886;28;20069;-62
2024/02/01 04:01:40;;;;;;;3.50;0.70;;;;;;;2.20;71.51;101892.53;4962793;28;20053;-61
2024/02/01 04:04:05;;;;;;;3.25;1.30;;;;;;;2.28;71.09;101885.38;4966247;28;20084;-62
2024/02/01 04:06:34;;;;;;;3.58;0.90;;;;;;;2.24;71.22;101877.81;4962738;28;20050;-62
2024/02/01 04:09:00;;;;;;;3.53;1.00;;;;;;;2.22;70.71;101870.16;4968044;28;20042;-62
2024/02/01 04:11:29;;;;;;;5.65;0.95;;;;;;;2.24;70.29;101873.53;4980217;28;20062;-62
2024/02/01 04:13:55;;;;;;;2.90;0.88;;;;;;;2.32;69.75;101862.94;4969150;28;20518;-62
2024/02/01 04:16:21;;;;;;;6.60;1.52;;;;;;;2.31;69.63;101867.25;4963971;28;20061;-62
2024/02/01 04:18:46;;;;;;;4.95;1.08;;;;;;;2.31;70.06;101874.13;4961631;28;20062;-62
2024/02/01 04:21:11;;;;;;;3.35;1.23;;;;;;;2.23;70.27;101874.41;4965055;28;20031;-62
2024/02/01 04:23:40;;;;;;;2.53;0.75;;;;;;;2.16;70.27;101867.81;4962562;28;20072;-62
2024/02/01 04:26:07;;;;;;;3.50;0.80;;;;;;;2.18;70.40;101862.63;4962484;28;20617;-62
2024/02/01 04:28:35;;;;;;;5.40;1.02;;;;;;;2.21;69.98;101872.78;4963636;28;20132;-61
2024/02/01 04:31:01;;;;;;;8.15;2.10;;;;;;;2.08;70.77;101869.81;4961886;28;20301;-62
2024/02/01 04:33:28;;;;;;;4.65;2.15;;;;;;;1.69;73.11;101873.84;4963460;28;20121;-62
2024/02/01 04:35:53;;;;;;;10.05;2.60;;;;;;;1.43;74.19;101867.84;4965806;28;20798;-62
2024/02/01 04:38:19;;;;;;;4.38;2.00;;;;;;;1.25;74.84;101855.66;4969380;28;20044;-62
2024/02/01 04:40:44;;;;;;;5.25;1.80;;;;;;;1.28;74.83;101850.41;4962554;28;20506;-62
2024/02/01 04:43:11;;;;;;;8.73;1.80;;;;;;;1.29;75.24;101846.94;4965011;28;20096;-61
2024/02/01 04:45:36;;;;;;;13.02;2.33;;;;;;;1.11;75.49;101840.69;4964148;28;20112;-61
2024/02/01 04:48:03;;;;;;;3.67;1.25;;;;;;;1.21;75.03;101842.06;4946961;28;20561;-62
2024/02/01 04:50:30;;;;;;;7.55;2.38;;;;;;;1.29;74.39;101834.97;4963417;28;20657;-61
2024/02/01 04:52:55;;;;;;;9.20;2.90;;;;;;;1.19;74.68;101832.75;4965482;28;20078;-61
2024/02/01 04:55:22;;;;;;;9.27;3.40;;;;;;;0.81;76.75;101832.28;4962619;28;21160;-62
2024/02/01 04:57:47;;;;;;;11.30;3.50;;;;;;;0.50;78.47;101834.94;4962737;28;20034;-61
2024/02/01 05:00:14;;;;;;;8.82;3.72;;;;;;;0.21;80.40;101840.97;4979906;28;20034;-61
2024/02/01 05:02:47;;;;;;;8.82;4.50;;;;;;;0.08;80.51;101844.75;4984423;28;20030;-61
2024/02/01 05:05:14;;;;;;;9.85;4.07;;;;;;;-0.03;80.79;101857.06;4963810;28;20085;-61
2024/02/01 05:07:40;;;;;;;11.32;4.45;;;;;;;-0.08;81.84;101864.03;4962855;28;20409;-62
2024/02/01 05:10:12;;;;;;;7.90;2.53;;;;;;;0.27;80.08;101870.72;4976277;28;20324;-61
2024/02/01 05:12:41;;;;;;;3.67;1.50;;;;;;;0.68;78.31;101868.63;4965271;28;20030;-61
2024/02/01 05:15:09;;;;;;;6.57;1.95;;;;;;;0.86;77.60;101865.50;4972420;28;20057;-62
2024/02/01 05:17:39;;;;;;;5.97;1.52;;;;;;;1.02;76.85;101863.25;4990066;28;20037;-61
2024/02/01 05:20:08;;;;;;;4.00;1.20;;;;;;;1.26;75.65;101870.16;4963005;28;20054;-62
2024/02/01 05:22:41;;;;;;;4.20;1.25;;;;;;;1.41;74.82;101864.53;4964141;28;20057;-61
2024/02/01 05:25:18;;;;;;;4.40;1.25;;;;;;;1.49;74.47;101865.06;4976880;28;20031;-61
2024/02/01 05:27:50;;;;;;;4.22;0.80;;;;;;;1.57;73.65;101870.78;4962923;28;20148;-62
2024/02/01 05:30:16;;;;;;;3.25;1.08;;;;;;;1.63;73.29;101865.44;4949583;28;20042;-61
2024/02/01 05:32:51;;;;;;;3.15;1.38;;;;;;;1.67;72.77;101859.31;4963808;28;20038;-61
2024/02/01 05:35:24;;;;;;;4.30;1.00;;;;;;;1.76;71.85;101867.59;4968725;28;20035;-62
2024/02/01 05:37:50;;;;;;;2.05;0.90;;;;;;;1.83;71.10;101867.31;4962586;28;20054;-61
2024/02/01 05:40:16;;;;;;;4.32;0.88;;;;;;;1.82;71.98;101867.38;4974806;28;20403;-61
2024/02/01 05:42:45;;;;;;;4.43;0.68;;;;;;;1.81;71.54;101858.00;4962523;28;20053;-61
2024/02/01 05:45:12;;;;;;;2.30;0.95;;;;;;;1.84;71.41;101847.59;4962139;28;20460;-61
2024/02/01 05:47:37;;;;;;;3.80;0.77;;;;;;;1.85;70.87;101851.84;4987125;28;20077;-62
2024/02/01 05:50:04;;;;;;;1.92;0.70;;;;;;;1.89;70.07;101854.22;4986093;28;20034;-62
2024/02/01 05:52:33;;;;;;;4.80;0.90;;;;;;;1.84;71.10;101855.31;4994339;28;20466;-62
2024/02/01 05:54:59;;;;;;;2.83;0.50;;;;;;;1.89;70.44;101850.84;4991823;28;20045;-61
2024/02/01 05:57:24;;;;;;;2.47;0.98;;;;;;;1.87;70.36;101858.63;5004603;28;20030;-61
2024/02/01 05:59:49;;;;;;;10.07;1.50;;;;;;;1.61;72.15;101858.69;4991714;28;20026;-62
2024/02/01 06:02:15;;;;;;;5.72;2.42;;;;;;;1.29;73.31;101852.09;4997591;28;20033;-62
2024/02/01 06:04:42;;;;;;;13.02;3.03;;;;;;;1.05;74.82;101847.75;4988681;28;20076;-62
2024/02/01 06:07:08;;;;;;;7.40;2.60;;;;;;;0.83;75.69;101835.63;4990272;28;20049;-62
2024/02/01 06:09:33;;;;;;;8.82;3.60;;;;;;;0.65;76.09;101842.19;4998252;28;20147;-61
2024/02/01 06:11:59;;;;;;;6.35;2.85;;;;;;;0.49;77.94;101840.13;4996540;28;20041;-62
2024/02/01 06:14:24;;;;;;;8.82;3.60;;;;;;;0.30;78.32;101842.41;5000949;28;20052;-62
2024/02/01 06:16:49;;;;;;;12.38;3.40;;;;;;;0.06;79.73;101843.97;4987162;28;20035;-62
2024/02/01 06:19:15;;;;;;;10.85;3.70;;;;;;;0.05;80.09;101849.13;4992162;28;20034;-62
2024/02/01 06:21:41;;;;;;;8.75;3.05;;;;;;;0.08;80.24;101852.44;4997918;28;20048;-62
2024/02/01 06:24:10;;;;;;;7.90;2.10;;;;;;;0.55;77.77;101860.44;4994275;28;20030;-61
2024/02/01 06:26:36;;;;;;;5.40;1.23;;;;;;;0.90;76.45;101857.66;4990864;28;20045;-62
2024/02/01 06:29:07;;;;;;;4.13;0.85;;;;;;;1.11;75.36;101866.38;4987663;28;20536;-63
2024/02/01 06:31:37;;;;;;;6.28;1.42;;;;;;;1.21;74.40;101866.91;4992628;28;20029;-61
2024/02/01 06:34:06;;;;;;;4.10;1.10;;;;;;;1.28;74.22;101865.81;4997760;28;20030;-61
2024/02/01 06:36:35;;;;;;;6.45;1.10;;;;;;;1.32;74.08;101864.81;4996607;28;20493;-62
2024/02/01 06:44:21;;;;;;;3.28;1.08;;;;;;;1.57;72.66;101878.50;5004990;28;20053;-62
2024/02/01 06:49:39;;;;;;;3.63;1.25;;;;;;;1.63;71.93;101877.44;4989970;28;20035;-62
2024/02/01 06:52:24;;;;;;;4.03;1.40;;;;;;;1.69;71.82;101879.81;4991633;28;20030;-62
2024/02/01 07:03:12;;;;;;;9.13;2.42;;;;;;;1.94;69.54;101885.75;4998911;28;20057;-62
2024/02/01 07:11:14;;;;;;;6.30;1.33;;;;;;;2.03;70.08;101896.59;4993131;28;20497;-61
2024/02/01 07:13:58;;;;;;;2.88;0.95;;;;;;;2.13;69.86;101888.50;4988774;28;20038;-61
2024/02/01 07:16:24;;;;;;;5.22;1.13;;;;;;;2.20;69.59;101892.53;4995096;28;20124;-61
2024/02/01 07:22:02;;;;;;;2.08;0.90;;;;;;;2.28;69.00;101890.50;4931782;29;20474;-62
2024/02/01 08:00:08;;;;;;;15.13;4.72;;;;;;;2.88;70.06;101855.56;4990424;28;20465;-61
2024/02/01 08:03:00;;;;;;;8.20;3.80;;;;;;;2.89;70.25;101864.97;4998720;28;20385;-61
2024/02/01 08:08:14;;;;;;;11.88;4.03;;;;;;;3.09;69.27;101846.16;4998935;28;20437;-61
2024/02/01 08:10:40;;;;;;;7.18;2.17;;;;;;;3.28;67.85;101849.63;4996150;28;20062;-62
2024/02/01 08:13:07;;;;;;;4.68;1.27;;;;;;;3.48;67.32;101847.94;5005946;28;20073;-61
2024/02/01 08:15:37;;;;;;;7.63;1.13;;;;;;;3.56;66.78;101848.47;5003170;28;20034;-62
2024/02/01 08:18:08;;;;;;;3.30;0.65;;;;;;;3.60;65.99;101845.69;4988071;28;20041;-62
2024/02/01 08:20:40;;;;;;;4.45;0.82;;;;;;;3.63;66.29;101845.56;4992341;28;20023;-61
2024/02/01 08:23:06;;;;;;;4.82;0.98;;;;;;;3.74;65.60;101847.66;4992235;28;20034;-62
2024/02/01 08:25:32;;;;;;;10.68;0.88;;;;;;;3.86;65.00;101852.25;4985580;28;20096;-62
2024/02/01 08:27:59;;;;;;;3.53;0.80;;;;;;;4.00;64.21;101846.50;4988502;28;20080;-62
2024/02/01 08:30:31;;;;;;;4.40;0.63;;;;;;;4.12;63.63;101835.63;4986118;28;20033;-61
2024/02/01 08:33:03;;;;;;;3.95;0.70;;;;;;;4.19;62.81;101839.59;4989628;28;20033;-61
2024/02/01 08:35:35;;;;;;;8.35;1.00;;;;;;;4.29;63.78;101824.50;4975067;28;20485;-61
2024/02/01 08:38:01;;;;;;;6.38;0.98;;;;;;;4.38;63.55;101818.09;4975288;28;20420;-62
2024/02/01 08:40:26;;;;;;;2.92;0.60;;;;;;;4.46;63.74;101811.66;4993151;28;20066;-62
2024/02/01 08:42:58;;;;;;;2.83;1.13;;;;;;;4.49;63.06;101810.69;4979710;28;20035;-63
2024/02/01 08:45:27;;;;;;;5.22;0.88;;;;;;;4.58;62.82;101810.25;4988502;28;20026;-62
2024/02/01 08:47:53;;;;;;;3.55;0.75;;;;;;;4.66;63.02;101810.72;4992118;28;20053;-61
2024/02/01 08:50:18;;;;;;;3.40;1.15;;;;;;;4.74;63.00;101806.00;4978595;28;20034;-62
2024/02/01 08:52:46;;;;;;;3.55;0.90;;;;;;;4.85;63.77;101797.75;4984732;28;20360;-61
2024/02/01 08:55:14;;;;;;;4.10;1.73;;;;;;;4.94;64.30;101800.72;4974962;28;20092;-62
2024/02/01 08:57:46;;;;;;;8.93;4.13;;;;;;;4.98;64.59;101796.22;4980886;28;20026;-63
2024/02/01 09:03:17;;;;;;;10.75;4.30;;;;;;;4.99;65.58;101791.00;4984147;28;20351;-62
2024/02/01 09:05:48;;;;;;;9.77;4.93;;;;;;;5.00;65.25;101795.25;4981429;28;20039;-62
2024/02/01 09:08:24;;;;;;;11.93;4.68;;;;;;;5.03;66.13;101804.59;4982784;28;20286;-62
2024/02/01 09:10:57;;;;;;;9.38;3.55;;;;;;;5.08;64.15;101809.53;4973942;28;20035;-62
2024/02/01 09:13:24;;;;;;;12.80;3.92;;;;;;;5.12;65.87;101811.03;4980341;28;20034;-62
2024/02/01 09:15:51;;;;;;;7.53;2.58;;;;;;;5.20;64.09;101816.66;4980373;28;20040;-62
2024/02/01 09:18:20;;;;;;;6.75;1.60;;;;;;;5.31;63.37;101814.34;4983898;28;20150;-62
2024/02/01 09:20:46;;;;;;;4.75;1.85;;;;;;;5.37;61.92;101806.28;4973437;28;20043;-62
2024/02/01 09:23:12;;;;;;;4.18;0.90;;;;;;;5.33;61.38;101821.13;4982438;28;20031;-62
2024/02/01 09:25:37;;;;;;;4.07;1.08;;;;;;;5.30;61.48;101823.03;4979785;28;20042;-62
2024/02/01 09:28:11;;;;;;;2.75;1.27;;;;;;;5.28;61.82;101822.25;4979704;28;20056;-62
2024/02/01 09:30:38;;;;;;;2.78;1.17;;;;;;;5.27;62.55;101820.59;4975869;28;20035;-62
2024/02/01 09:33:03;;;;;;;2.80;1.00;;;;;;;5.27;62.33;101820.59;4975612;28;20030;-62
2024/02/01 09:35:29;;;;;;;6.78;1.30;;;;;;;5.33;61.62;101820.28;4989359;28;20470;-62
2024/02/01 09:37:54;;;;;;;4.53;0.85;;;;;;;5.42;61.33;101803.47;4986492;28;20047;-62
2024/02/01 09:40:23;;;;;;;4.63;1.08;;;;;;;5.55;60.84;101809.69;4982480;28;20026;-62
2024/02/01 09:42:50;;;;;;;4.25;1.05;;;;;;;5.62;60.91;101804.13;4983899;28;20035;-62
2024/02/01 09:45:18;;;;;;;4.05;1.17;;;;;;;5.66;61.00;101810.81;4983474;28;20030;-62
2024/02/01 09:47:43;;;;;;;3.30;0.60;;;;;;;5.72;60.14;101801.03;4980269;28;20026;-62
2024/02/01 09:50:21;;;;;;;10.63;0.82;;;;;;;5.83;59.88;101809.91;4987123;28;20046;-62
2024/02/01 09:52:49;;;;;;;3.42;0.63;;;;;;;5.91;60.27;101812.13;4981624;28;20027;-62
2024/02/01 09:55:19;;;;;;;3.05;0.70;;;;;;;5.93;60.41;101794.75;4989738;28;20033;-62
2024/02/01 09:57:52;;;;;;;2.55;1.00;;;;;;;5.94;60.34;101796.44;4982640;28;20122;-62
2024/02/01 10:00:22;;;;;;;2.67;1.00;;;;;;;5.99;59.75;101794.44;4988112;28;20397;-62
2024/02/01 10:02:49;;;;;;;3.90;1.15;;;;;;;5.95;59.15;101798.09;4988242;28;20035;-62
2024/02/01 10:05:15;;;;;;;2.97;0.68;;;;;;;5.84;61.00;101793.47;4995124;28;20029;-62
2024/02/01 10:07:41;;;;;;;3.63;1.10;;;;;;;5.77;60.48;101796.44;4985340;28;20440;-62
2024/02/01 10:10:07;;;;;;;4.13;0.90;;;;;;;5.75;61.86;101798.28;4975628;28;20031;-62
2024/02/01 10:12:34;;;;;;;3.53;0.60;;;;;;;5.81;61.93;101805.72;4988994;28;20081;-62
2024/02/01 10:15:00;;;;;;;1.85;0.60;;;;;;;5.84;61.65;101810.72;4991382;28;20031;-62
2024/02/01 10:17:27;;;;;;;1.92;0.60;;;;;;;5.92;59.99;101793.91;4991401;28;20030;-62
2024/02/01 10:19:54;;;;;;;3.55;0.88;;;;;;;6.11;60.82;101788.59;4989871;28;21749;-63
2024/02/01 10:22:19;;;;;;;2.72;0.50;;;;;;;6.28;60.21;101785.06;4986236;28;20615;-62
2024/02/01 10:24:51;;;;;;;2.50;0.60;;;;;;;6.42;58.87;101777.38;4988658;28;20120;-62
2024/02/01 10:27:20;;;;;;;2.20;0.47;;;;;;;6.57;59.01;101778.28;4994099;28;20026;-62
2024/02/01 10:29:46;;;;;;;2.13;0.75;;;;;;;6.67;58.70;101771.63;4978292;28;20065;-62
2024/02/01 10:32:14;;;;;;;4.50;0.70;;;;;;;6.86;58.07;101769.66;4982305;28;20030;-62
2024/02/01 10:34:43;;;;;;;1.65;0.80;;;;;;;6.88;58.41;101769.56;4982380;28;20393;-62
2024/02/01 10:37:13;;;;;;;4.43;0.52;;;;;;;6.82;58.37;101780.28;4982927;28;20053;-62
2024/02/01 10:39:40;;;;;;;3.58;1.00;;;;;;;6.94;57.44;101771.81;4986430;28;20401;-62
2024/02/01 10:42:09;;;;;;;2.50;1.00;;;;;;;7.05;58.18;101768.59;4981664;28;20037;-62
2024/02/01 10:44:39;;;;;;;1.88;0.70;;;;;;;7.10;58.02;101749.22;4979173;28;20031;-62
2024/02/01 10:47:13;;;;;;;2.13;0.50;;;;;;;7.25;57.80;101742.31;4983573;28;20027;-62
2024/02/01 10:49:43;;;;;;;2.40;0.82;;;;;;;7.30;58.86;101741.09;4979565;28;20049;-62
2024/02/01 10:52:09;;;;;;;3.65;0.98;;;;;;;7.35;57.48;101740.00;4980751;28;20122;-61
2024/02/01 10:54:35;;;;;;;4.32;1.17;;;;;;;7.36;57.50;101739.06;4981086;28;20066;-62
2024/02/01 10:57:05;;;;;;;2.50;0.68;;;;;;;7.40;57.77;101741.38;4982240;28;20496;-62
2024/02/01 10:59:31;;;;;;;3.00;0.90;;;;;;;7.48;59.45;101743.50;4983923;28;20038;-62
2024/02/01 11:01:57;;;;;;;2.67;0.70;;;;;;;7.48;57.69;101733.97;4981317;28;20029;-62
2024/02/01 11:04:23;;;;;;;4.43;1.08;;;;;;;7.41;59.15;101732.69;4979674;28;20030;-62
2024/02/01 11:06:50;;;;;;;1.85;0.55;;;;;;;7.43;58.93;101736.00;4978948;28;20124;-62
2024/02/01 11:09:22;;;;;;;4.05;1.52;;;;;;;7.51;59.48;101728.59;4979520;28;20046;-62
2024/02/01 11:11:54;;;;;;;4.22;0.63;;;;;;;7.61;59.90;101734.88;4975667;28;20061;-62
2024/02/01 11:14:32;;;;;;;2.55;0.77;;;;;;;7.63;58.36;101735.59;4979120;28;20030;-62
2024/02/01 11:17:02;;;;;;;3.25;0.80;;;;;;;7.64;59.19;101736.44;4979266;28;20035;-62
2024/02/01 11:19:32;;;;;;;5.72;0.98;;;;;;;7.60;60.24;101729.78;4989245;28;20038;-62
2024/02/01 11:22:01;;;;;;;5.13;0.70;;;;;;;7.50;59.58;101736.47;4986580;28;20031;-62
2024/02/01 11:24:29;;;;;;;1.90;0.70;;;;;;;7.74;59.73;101739.31;4990594;28;20026;-62
2024/02/01 11:27:03;;;;;;;2.58;0.90;;;;;;;7.89;59.08;101733.16;4983606;28;20046;-62
2024/02/01 11:29:34;;;;;;;4.65;0.98;;;;;;;8.02;58.46;101736.66;4983255;28;20023;-62
2024/02/01 11:32:04;;;;;;;2.45;0.93;;;;;;;8.10;57.51;101739.56;4978051;28;20034;-62
2024/02/01 11:34:33;;;;;;;4.07;1.30;;;;;;;8.13;57.81;101729.00;4983820;28;20492;-63
2024/02/01 11:36:59;;;;;;;4.18;1.10;;;;;;;8.36;57.50;101729.31;4982156;28;20063;-63
2024/02/01 11:39:28;;;;;;;3.90;1.30;;;;;;;8.54;57.82;101728.09;4980034;28;20541;-63
2024/02/01 11:41:55;;;;;;;3.08;1.10;;;;;;;8.58;56.71;101733.00;4964594;28;20046;-63
2024/02/01 11:44:27;;;;;;;3.65;1.13;;;;;;;8.65;57.81;101733.44;4975467;28;20031;-63
2024/02/01 11:46:53;;;;;;;4.72;1.27;;;;;;;8.72;57.34;101737.28;4983629;28;20454;-62
2024/02/01 11:49:25;;;;;;;4.78;1.30;;;;;;;8.78;57.46;101743.84;4984517;28;20113;-63
2024/02/01 11:52:20;;;;;;;7.97;1.10;;;;;;;8.82;56.86;101748.75;4983834;28;20362;-63
2024/02/01 11:54:51;;;;;;;3.10;0.70;;;;;;;8.70;58.27;101746.94;4982909;28;20045;-63
2024/02/01 11:57:19;;;;;;;2.50;0.50;;;;;;;8.63;58.49;101736.13;4981507;28;20031;-63
2024/02/01 11:59:45;;;;;;;2.58;1.08;;;;;;;8.55;58.28;101732.38;4985838;28;20038;-63
2024/02/01 12:02:11;;;;;;;4.53;0.90;;;;;;;8.57;58.88;101727.91;4978071;28;20035;-63
2024/02/01 12:04:37;;;;;;;2.92;1.00;;;;;;;8.60;59.32;101730.31;4975001;28;20037;-63
2024/02/01 12:07:05;;;;;;;3.33;1.10;;;;;;;8.54;59.99;101728.09;4981898;28;20043;-63
2024/02/01 12:09:37;;;;;;;2.65;0.60;;;;;;;8.48;60.07;101731.97;4984918;28;20049;-63
2024/02/01 12:12:06;;;;;;;3.78;1.35;;;;;;;8.52;60.04;101725.59;4979718;28;20046;-63
2024/02/01 12:14:32;;;;;;;3.80;1.35;;;;;;;8.60;59.79;101727.69;4987617;28;20544;-63
2024/02/01 12:17:02;;;;;;;3.30;1.10;;;;;;;8.71;60.28;101730.44;4986283;28;20042;-63
2024/02/01 12:19:32;;;;;;;5.22;2.08;;;;;;;8.72;60.90;101720.88;4986041;28;20026;-63
2024/02/01 12:21:57;;;;;;;4.75;1.50;;;;;;;8.71;61.39;101733.03;4984663;28;20047;-63
2024/02/01 12:24:24;;;;;;;6.88;2.88;;;;;;;8.64;62.19;101721.38;4982214;28;20037;-63
2024/02/01 12:26:50;;;;;;;7.05;2.72;;;;;;;8.55;62.52;101732.38;4963010;28;20497;-62
2024/02/01 12:29:15;;;;;;;6.63;2.90;;;;;;;8.39;62.96;101724.75;4994571;28;20042;-63
2024/02/01 12:31:41;;;;;;;7.90;3.13;;;;;;;8.32;63.21;101720.88;4988297;28;20046;-63
2024/02/01 12:34:13;;;;;;;12.13;3.08;;;;;;;8.25;63.76;101724.78;4994813;28;20080;-62
2024/02/01 12:36:43;;;;;;;8.13;3.63;;;;;;;8.20;64.32;101717.28;4979410;28;20056;-63
2024/02/01 12:39:08;;;;;;;7.43;3.53;;;;;;;8.14;64.60;101720.28;4985320;28;20030;-63
2024/02/01 12:41:35;;;;;;;5.65;2.95;;;;;;;8.09;64.89;101718.91;4997597;28;20069;-63